createdAt,value
2023-06-29T00:00:28.620Z,610.00
2023-06-29T00:01:28.734Z,610.00
2023-06-29T00:02:28.736Z,611.00
2023-06-29T00:03:28.840Z,608.00
2023-06-29T00:04:28.792Z,612.00
2023-06-29T00:05:28.896Z,610.00
2023-06-29T00:06:28.918Z,618.00
2023-06-29T00:07:28.946Z,613.00
2023-06-29T00:08:28.972Z,614.00
2023-06-29T00:09:29.015Z,612.00
2023-06-29T00:10:29.069Z,615.00
2023-06-29T00:11:29.071Z,612.00
2023-06-29T00:12:29.160Z,613.00
2023-06-29T00:13:29.193Z,617.00
2023-06-29T00:14:29.241Z,614.00
2023-06-29T00:15:29.252Z,617.00
2023-06-29T00:16:29.367Z,617.00
2023-06-29T00:17:29.388Z,612.00
2023-06-29T00:18:29.463Z,612.00
2023-06-29T00:19:29.477Z,610.00
2023-06-29T00:20:29.547Z,615.00
2023-06-29T00:21:29.674Z,617.00
2023-06-29T00:22:29.736Z,614.00
2023-06-29T00:23:29.622Z,618.00
2023-06-29T00:24:29.660Z,614.00
2023-06-29T00:25:29.686Z,618.00
2023-06-29T00:26:29.750Z,615.00
2023-06-29T00:27:29.786Z,616.00
2023-06-29T00:28:29.817Z,616.00
2023-06-29T00:29:29.860Z,616.00
2023-06-29T00:30:30.001Z,616.00
2023-06-29T00:31:29.967Z,614.00
2023-06-29T00:32:30.076Z,615.00
2023-06-29T00:33:30.090Z,615.00
2023-06-29T00:34:30.117Z,615.00
2023-06-29T00:35:30.164Z,615.00
2023-06-29T00:36:30.228Z,616.00
2023-06-29T00:37:30.238Z,611.00
2023-06-29T00:38:30.330Z,620.00
2023-06-29T00:39:30.354Z,617.00
2023-06-29T00:40:30.369Z,612.00
2023-06-29T00:41:30.412Z,616.00
2023-06-29T00:42:30.489Z,614.00
2023-06-29T00:43:30.602Z,617.00
2023-06-29T00:44:30.606Z,614.00
2023-06-29T00:45:30.644Z,612.00
2023-06-29T00:46:30.755Z,617.00
2023-06-29T00:47:30.764Z,617.00
2023-06-29T00:48:30.805Z,615.00
2023-06-29T00:49:30.869Z,616.00
2023-06-29T00:50:30.924Z,614.00
2023-06-29T00:51:30.965Z,619.00
2023-06-29T00:52:30.973Z,619.00
2023-06-29T00:53:31.009Z,619.00
2023-06-29T00:54:31.085Z,616.00
2023-06-29T00:55:31.129Z,613.00
2023-06-29T00:56:31.165Z,615.00
2023-06-29T00:57:31.238Z,618.00
2023-06-29T00:58:31.289Z,613.00
2023-06-29T00:59:31.326Z,613.00
2023-06-29T01:00:31.422Z,620.00
2023-06-29T01:01:31.462Z,618.00
2023-06-29T01:02:31.652Z,614.00
2023-06-29T01:03:31.656Z,614.00
2023-06-29T01:04:31.637Z,617.00
2023-06-29T01:05:31.675Z,620.00
2023-06-29T01:06:31.701Z,617.00
2023-06-29T01:07:31.872Z,614.00
2023-06-29T01:08:31.819Z,621.00
2023-06-29T01:09:31.944Z,618.00
2023-06-29T01:10:31.912Z,618.00
2023-06-29T01:11:31.988Z,617.00
2023-06-29T01:12:32.036Z,614.00
2023-06-29T01:13:32.111Z,622.00
2023-06-29T01:14:32.167Z,622.00
2023-06-29T01:15:32.225Z,617.00
2023-06-29T01:16:32.293Z,617.00
2023-06-29T01:17:32.420Z,619.00
2023-06-29T01:18:32.404Z,616.00
2023-06-29T01:19:32.476Z,617.00
2023-06-29T01:20:32.541Z,616.00
2023-06-29T01:21:32.570Z,616.00
2023-06-29T01:22:32.690Z,616.00
2023-06-29T01:23:32.816Z,616.00
2023-06-29T01:24:32.753Z,613.00
2023-06-29T01:25:32.805Z,615.00
2023-06-29T01:26:32.832Z,614.00
2023-06-29T01:27:32.924Z,619.00
2023-06-29T01:28:32.996Z,617.00
2023-06-29T01:29:33.046Z,618.00
2023-06-29T01:30:33.588Z,617.00
2023-06-29T01:31:33.162Z,618.00
2023-06-29T01:32:33.202Z,619.00
2023-06-29T01:33:33.278Z,619.00
2023-06-29T01:34:33.341Z,622.00
2023-06-29T01:35:33.392Z,620.00
2023-06-29T01:36:33.424Z,619.00
2023-06-29T01:37:33.465Z,620.00
2023-06-29T01:38:33.547Z,618.00
2023-06-29T01:39:33.625Z,618.00
2023-06-29T01:40:33.734Z,617.00
2023-06-29T01:41:33.749Z,617.00
2023-06-29T01:42:33.793Z,617.00
2023-06-29T01:43:33.868Z,618.00
2023-06-29T01:44:33.914Z,616.00
2023-06-29T01:45:33.962Z,616.00
2023-06-29T01:46:34.222Z,620.00
2023-06-29T01:47:34.149Z,619.00
2023-06-29T01:48:34.164Z,615.00
2023-06-29T01:49:34.194Z,618.00
2023-06-29T01:50:34.258Z,616.00
2023-06-29T01:51:34.322Z,617.00
2023-06-29T01:52:34.375Z,619.00
2023-06-29T01:53:34.426Z,620.00
2023-06-29T01:54:34.524Z,616.00
2023-06-29T01:55:34.550Z,615.00
2023-06-29T01:56:34.599Z,617.00
2023-06-29T01:57:34.665Z,622.00
2023-06-29T01:58:34.686Z,618.00
2023-06-29T01:59:34.770Z,622.00
2023-06-29T02:00:37.073Z,616.00
2023-06-29T02:01:34.994Z,626.00
2023-06-29T02:02:34.883Z,621.00
2023-06-29T02:03:34.986Z,620.00
2023-06-29T02:04:34.810Z,619.00
2023-06-29T02:05:34.808Z,620.00
2023-06-29T02:06:34.796Z,619.00
2023-06-29T02:07:34.848Z,621.00
2023-06-29T02:08:34.796Z,620.00
2023-06-29T02:09:34.765Z,619.00
2023-06-29T02:10:34.782Z,620.00
2023-06-29T02:11:34.737Z,619.00
2023-06-29T02:12:34.760Z,622.00
2023-06-29T02:13:34.715Z,621.00
2023-06-29T02:14:34.755Z,615.00
2023-06-29T02:15:34.722Z,619.00
2023-06-29T02:16:34.869Z,616.00
2023-06-29T02:17:34.745Z,619.00
2023-06-29T02:18:34.712Z,616.00
2023-06-29T02:19:34.711Z,618.00
2023-06-29T02:20:34.701Z,617.00
2023-06-29T02:21:34.710Z,616.00
2023-06-29T02:22:34.680Z,619.00
2023-06-29T02:23:34.684Z,616.00
2023-06-29T02:24:34.676Z,620.00
2023-06-29T02:25:34.642Z,622.00
2023-06-29T02:26:34.648Z,620.00
2023-06-29T02:27:34.645Z,616.00
2023-06-29T02:28:34.720Z,617.00
2023-06-29T02:29:34.760Z,619.00
2023-06-29T02:30:34.833Z,616.00
2023-06-29T02:31:34.917Z,620.00
2023-06-29T02:32:34.961Z,619.00
2023-06-29T02:33:35.008Z,617.00
2023-06-29T02:34:35.083Z,618.00
2023-06-29T02:35:35.141Z,616.00
2023-06-29T02:36:35.176Z,620.00
2023-06-29T02:37:35.280Z,617.00
2023-06-29T02:38:35.350Z,619.00
2023-06-29T02:39:35.352Z,617.00
2023-06-29T02:40:35.418Z,615.00
2023-06-29T02:41:35.505Z,614.00
2023-06-29T02:42:35.541Z,616.00
2023-06-29T02:43:35.659Z,618.00
2023-06-29T02:44:35.703Z,616.00
2023-06-29T02:45:35.808Z,620.00
2023-06-29T02:46:35.843Z,621.00
2023-06-29T02:47:35.928Z,616.00
2023-06-29T02:48:35.957Z,616.00
2023-06-29T02:49:35.987Z,617.00
2023-06-29T02:50:36.040Z,617.00
2023-06-29T02:51:36.119Z,619.00
2023-06-29T02:52:36.183Z,616.00
2023-06-29T02:53:36.243Z,611.00
2023-06-29T02:54:36.333Z,617.00
2023-06-29T02:55:36.360Z,618.00
2023-06-29T02:56:36.489Z,613.00
2023-06-29T02:57:36.445Z,617.00
2023-06-29T02:58:36.520Z,616.00
2023-06-29T02:59:36.612Z,617.00
2023-06-29T03:00:36.641Z,619.00
2023-06-29T03:01:36.731Z,612.00
2023-06-29T03:02:36.833Z,614.00
2023-06-29T03:03:36.836Z,621.00
2023-06-29T03:04:36.857Z,619.00
2023-06-29T03:05:36.943Z,616.00
2023-06-29T03:06:36.978Z,615.00
2023-06-29T03:07:37.114Z,617.00
2023-06-29T03:08:37.070Z,619.00
2023-06-29T03:09:37.192Z,619.00
2023-06-29T03:10:37.242Z,614.00
2023-06-29T03:11:37.211Z,619.00
2023-06-29T03:12:37.221Z,613.00
2023-06-29T03:13:37.249Z,613.00
2023-06-29T03:14:37.325Z,612.00
2023-06-29T03:15:37.332Z,612.00
2023-06-29T03:16:37.414Z,617.00
2023-06-29T03:17:37.402Z,613.00
2023-06-29T03:18:37.369Z,616.00
2023-06-29T03:19:37.469Z,614.00
2023-06-29T03:20:37.427Z,615.00
2023-06-29T03:21:37.462Z,617.00
2023-06-29T03:22:37.644Z,615.00
2023-06-29T03:23:37.556Z,613.00
2023-06-29T03:24:37.566Z,615.00
2023-06-29T03:25:37.570Z,614.00
2023-06-29T03:26:37.609Z,616.00
2023-06-29T03:27:37.681Z,617.00
2023-06-29T03:28:37.618Z,618.00
2023-06-29T03:29:37.709Z,613.00
2023-06-29T03:30:37.721Z,615.00
2023-06-29T03:31:37.766Z,615.00
2023-06-29T03:32:37.784Z,616.00
2023-06-29T03:33:37.768Z,616.00
2023-06-29T03:34:37.778Z,614.00
2023-06-29T03:35:37.842Z,613.00
2023-06-29T03:36:37.861Z,617.00
2023-06-29T03:37:37.907Z,613.00
2023-06-29T03:38:37.901Z,612.00
2023-06-29T03:39:37.916Z,613.00
2023-06-29T03:40:37.978Z,613.00
2023-06-29T03:41:37.988Z,616.00
2023-06-29T03:42:37.943Z,612.00
2023-06-29T03:43:37.992Z,615.00
2023-06-29T03:44:38.150Z,615.00
2023-06-29T03:45:38.060Z,615.00
2023-06-29T03:46:38.071Z,617.00
2023-06-29T03:47:38.194Z,615.00
2023-06-29T03:48:38.241Z,617.00
2023-06-29T03:49:38.245Z,615.00
2023-06-29T03:50:38.251Z,616.00
2023-06-29T03:51:38.257Z,612.00
2023-06-29T03:52:38.279Z,619.00
2023-06-29T03:53:38.314Z,608.00
2023-06-29T03:54:38.308Z,613.00
2023-06-29T03:55:38.318Z,613.00
2023-06-29T03:56:38.396Z,615.00
2023-06-29T03:57:38.388Z,614.00
2023-06-29T03:58:38.438Z,619.00
2023-06-29T03:59:38.415Z,609.00
2023-06-29T04:00:38.464Z,612.00
2023-06-29T04:01:38.708Z,612.00
2023-06-29T04:02:38.515Z,615.00
2023-06-29T04:03:38.624Z,613.00
2023-06-29T04:04:38.545Z,611.00
2023-06-29T04:05:38.565Z,611.00
2023-06-29T04:06:38.557Z,610.00
2023-06-29T04:07:38.619Z,615.00
2023-06-29T04:08:38.670Z,614.00
2023-06-29T04:09:38.696Z,610.00
2023-06-29T04:10:38.736Z,611.00
2023-06-29T04:11:38.805Z,611.00
2023-06-29T04:12:38.871Z,608.00
2023-06-29T04:13:38.864Z,610.00
2023-06-29T04:14:38.882Z,610.00
2023-06-29T04:15:38.967Z,607.00
2023-06-29T04:16:39.080Z,608.00
2023-06-29T04:17:39.057Z,608.00
2023-06-29T04:18:39.137Z,610.00
2023-06-29T04:19:39.122Z,610.00
2023-06-29T04:20:39.209Z,606.00
2023-06-29T04:21:39.301Z,604.00
2023-06-29T04:22:39.316Z,603.00
2023-06-29T04:23:39.432Z,600.00
2023-06-29T04:24:39.465Z,599.00
2023-06-29T04:25:39.472Z,600.00
2023-06-29T04:26:39.559Z,599.00
2023-06-29T04:27:39.626Z,602.00
2023-06-29T04:28:39.672Z,597.00
2023-06-29T04:29:39.675Z,596.00
2023-06-29T04:30:39.763Z,598.00
2023-06-29T04:31:39.845Z,593.00
2023-06-29T04:32:40.052Z,595.00
2023-06-29T04:33:39.912Z,592.00
2023-06-29T04:34:39.937Z,590.00
2023-06-29T04:35:40.012Z,591.00
2023-06-29T04:36:40.029Z,588.00
2023-06-29T04:37:40.115Z,588.00
2023-06-29T04:38:40.211Z,584.00
2023-06-29T04:39:40.222Z,590.00
2023-06-29T04:40:40.278Z,590.00
2023-06-29T04:41:40.641Z,590.00
2023-06-29T04:42:40.385Z,589.00
2023-06-29T04:43:40.522Z,586.00
2023-06-29T04:44:40.497Z,585.00
2023-06-29T04:45:40.615Z,586.00
2023-06-29T04:46:40.810Z,586.00
2023-06-29T04:47:40.823Z,591.00
2023-06-29T04:48:40.752Z,585.00
2023-06-29T04:49:40.952Z,589.00
2023-06-29T04:50:40.908Z,583.00
2023-06-29T04:51:40.988Z,584.00
2023-06-29T04:52:41.025Z,581.00
2023-06-29T04:53:41.076Z,588.00
2023-06-29T04:54:41.146Z,584.00
2023-06-29T04:55:41.336Z,583.00
2023-06-29T04:56:41.224Z,579.00
2023-06-29T04:57:41.296Z,584.00
2023-06-29T04:58:41.377Z,585.00
2023-06-29T04:59:41.424Z,582.00
2023-06-29T05:00:41.501Z,581.00
2023-06-29T05:01:41.576Z,585.00
2023-06-29T05:02:41.698Z,584.00
2023-06-29T05:03:41.693Z,583.00
2023-06-29T05:04:41.732Z,580.00
2023-06-29T05:05:42.032Z,582.00
2023-06-29T05:06:41.850Z,582.00
2023-06-29T05:07:41.923Z,581.00
2023-06-29T05:08:41.972Z,586.00
2023-06-29T05:09:42.039Z,583.00
2023-06-29T05:10:42.136Z,578.00
2023-06-29T05:11:42.193Z,576.00
2023-06-29T05:12:42.182Z,580.00
2023-06-29T05:13:42.242Z,577.00
2023-06-29T05:14:42.299Z,576.00
2023-06-29T05:15:42.567Z,578.00
2023-06-29T05:16:42.476Z,579.00
2023-06-29T05:17:42.500Z,576.00
2023-06-29T05:18:42.541Z,578.00
2023-06-29T05:19:42.607Z,575.00
2023-06-29T05:20:42.661Z,579.00
2023-06-29T05:21:42.706Z,574.00
2023-06-29T05:22:42.745Z,575.00
2023-06-29T05:23:42.824Z,577.00
2023-06-29T05:24:42.884Z,573.00
2023-06-29T05:25:43.171Z,570.00
2023-06-29T05:26:42.950Z,569.00
2023-06-29T05:27:43.004Z,566.00
2023-06-29T05:28:49.836Z,567.00
2023-06-29T05:29:44.053Z,563.00
2023-06-29T05:30:43.055Z,534.00
2023-06-29T05:31:43.095Z,521.00
2023-06-29T05:32:43.157Z,498.00
2023-06-29T05:33:43.116Z,483.00
2023-06-29T05:34:43.013Z,500.00
2023-06-29T05:35:43.217Z,500.00
2023-06-29T05:36:43.017Z,500.00
2023-06-29T05:37:43.005Z,500.00
2023-06-29T05:38:42.984Z,504.00
2023-06-29T05:39:42.985Z,501.00
2023-06-29T05:40:43.399Z,505.00
2023-06-29T05:41:42.963Z,501.00
2023-06-29T05:42:43.026Z,500.00
2023-06-29T05:43:43.052Z,500.00
2023-06-29T05:44:43.067Z,501.00
2023-06-29T05:45:43.161Z,503.00
2023-06-29T05:46:43.103Z,500.00
2023-06-29T05:47:43.261Z,502.00
2023-06-29T05:48:43.152Z,506.00
2023-06-29T05:49:43.119Z,505.00
2023-06-29T05:50:43.332Z,499.00
2023-06-29T05:51:43.235Z,507.00
2023-06-29T05:52:43.110Z,505.00
2023-06-29T05:53:43.129Z,502.00
2023-06-29T05:54:43.128Z,500.00
2023-06-29T05:55:43.197Z,511.00
2023-06-29T05:56:43.255Z,517.00
2023-06-29T05:57:43.285Z,528.00
2023-06-29T05:58:43.362Z,540.00
2023-06-29T05:59:43.380Z,544.00
2023-06-29T06:00:43.638Z,554.00
2023-06-29T06:01:43.660Z,558.00
2023-06-29T06:02:43.558Z,557.00
2023-06-29T06:03:43.523Z,561.00
2023-06-29T06:04:43.516Z,557.00
2023-06-29T06:05:43.472Z,565.00
2023-06-29T06:06:43.482Z,567.00
2023-06-29T06:07:43.495Z,565.00
2023-06-29T06:08:43.535Z,567.00
2023-06-29T06:09:43.608Z,560.00
2023-06-29T06:10:43.752Z,564.00
2023-06-29T06:11:43.654Z,567.00
2023-06-29T06:12:43.687Z,571.00
2023-06-29T06:13:43.774Z,582.00
2023-06-29T06:14:43.895Z,578.00
2023-06-29T06:15:43.919Z,576.00
2023-06-29T06:16:44.248Z,574.00
2023-06-29T06:17:44.109Z,583.00
2023-06-29T06:18:44.024Z,573.00
2023-06-29T06:19:44.082Z,584.00
2023-06-29T06:20:44.453Z,584.00
2023-06-29T06:21:44.203Z,587.00
2023-06-29T06:22:44.215Z,593.00
2023-06-29T06:23:44.330Z,585.00
2023-06-29T06:24:44.262Z,582.00
2023-06-29T06:25:44.332Z,585.00
2023-06-29T06:26:44.346Z,579.00
2023-06-29T06:27:44.413Z,576.00
2023-06-29T06:28:44.384Z,578.00
2023-06-29T06:29:44.449Z,548.00
2023-06-29T06:30:44.669Z,526.00
2023-06-29T06:31:44.643Z,515.00
2023-06-29T06:32:44.666Z,500.00
2023-06-29T06:33:44.583Z,500.00
2023-06-29T06:34:44.591Z,506.00
2023-06-29T06:35:44.650Z,510.00
2023-06-29T06:36:44.640Z,504.00
2023-06-29T06:37:44.660Z,510.00
2023-06-29T06:38:49.994Z,516.00
2023-06-29T06:39:45.688Z,497.00
2023-06-29T06:40:45.128Z,486.00
2023-06-29T06:41:44.645Z,474.00
2023-06-29T06:42:44.644Z,465.00
2023-06-29T06:43:44.651Z,469.00
2023-06-29T06:44:44.623Z,499.00
2023-06-29T06:45:44.610Z,504.00
2023-06-29T06:46:44.716Z,521.00
2023-06-29T06:47:44.768Z,534.00
2023-06-29T06:48:44.588Z,550.00
2023-06-29T06:49:44.593Z,554.00
2023-06-29T06:50:44.753Z,553.00
2023-06-29T06:51:44.614Z,566.00
2023-06-29T06:52:44.577Z,567.00
2023-06-29T06:53:44.546Z,565.00
2023-06-29T06:54:44.617Z,576.00
2023-06-29T06:55:44.686Z,586.00
2023-06-29T06:56:44.712Z,544.00
2023-06-29T06:57:44.689Z,542.00
2023-06-29T06:58:44.699Z,550.00
2023-06-29T06:59:44.701Z,559.00
2023-06-29T07:00:44.918Z,564.00
2023-06-29T07:01:44.743Z,535.00
2023-06-29T07:02:44.811Z,522.00
2023-06-29T07:03:44.728Z,519.00
2023-06-29T07:04:44.730Z,520.00
2023-06-29T07:05:44.909Z,525.00
2023-06-29T07:06:44.822Z,516.00
2023-06-29T07:07:44.853Z,531.00
2023-06-29T07:08:44.983Z,537.00
2023-06-29T07:09:45.005Z,524.00
2023-06-29T07:10:45.297Z,520.00
2023-06-29T07:11:45.253Z,534.00
2023-06-29T07:12:45.149Z,543.00
2023-06-29T07:13:45.293Z,558.00
2023-06-29T07:14:45.214Z,569.00
2023-06-29T07:15:45.271Z,574.00
2023-06-29T07:16:45.347Z,589.00
2023-06-29T07:17:45.331Z,598.00
2023-06-29T07:18:45.345Z,612.00
2023-06-29T07:24:06.178Z,644.00
2023-06-29T07:24:45.351Z,646.00
2023-06-29T07:25:45.637Z,656.00
2023-06-29T07:26:45.291Z,689.00
2023-06-29T07:27:45.314Z,766.00
2023-06-29T07:28:45.453Z,876.00
2023-06-29T07:29:45.329Z,906.00
2023-06-29T07:30:45.343Z,928.00
2023-06-29T07:31:45.307Z,956.00
2023-06-29T07:32:45.379Z,997.00
2023-06-29T07:33:45.251Z,1019.00
2023-06-29T07:34:45.265Z,1060.00
2023-06-29T07:35:45.562Z,989.00
2023-06-29T07:36:45.714Z,888.00
2023-06-29T07:37:45.232Z,863.00
2023-06-29T07:38:45.186Z,766.00
2023-06-29T07:39:45.245Z,667.00
2023-06-29T07:40:46.536Z,672.00
2023-06-29T07:41:45.237Z,672.00
2023-06-29T07:42:45.208Z,673.00
2023-06-29T07:43:45.270Z,686.00
2023-06-29T07:44:45.191Z,714.00
2023-06-29T07:45:45.343Z,770.00
2023-06-29T07:46:45.183Z,803.00
2023-06-29T07:47:45.262Z,828.00
2023-06-29T07:48:45.264Z,866.00
2023-06-29T07:49:45.157Z,891.00
2023-06-29T07:50:45.104Z,913.00
2023-06-29T07:51:45.109Z,950.00
2023-06-29T07:52:45.113Z,981.00
2023-06-29T07:53:45.129Z,1020.00
2023-06-29T07:54:45.124Z,1031.00
2023-06-29T07:55:45.243Z,1058.00
2023-06-29T07:58:45.124Z,1091.00
2023-06-29T07:59:45.121Z,1104.00
2023-06-29T08:00:45.177Z,1132.00
2023-06-29T08:01:45.122Z,1183.00
2023-06-29T08:02:45.169Z,1244.00
2023-06-29T08:04:01.078Z,1295.00
2023-06-29T08:06:51.328Z,1299.00
2023-06-29T08:07:46.157Z,1301.00
2023-06-29T08:08:45.248Z,1318.00
2023-06-29T08:09:45.045Z,1355.00
2023-06-29T08:10:45.176Z,1419.00
2023-06-29T08:11:45.012Z,1478.00
2023-06-29T08:12:45.011Z,1514.00
2023-06-29T08:13:45.020Z,1528.00
2023-06-29T08:14:45.043Z,1571.00
2023-06-29T08:15:44.968Z,1594.00
2023-06-29T08:16:44.997Z,1625.00
2023-06-29T08:17:45.028Z,1645.00
2023-06-29T08:18:45.175Z,1664.00
2023-06-29T08:19:44.918Z,1673.00
2023-06-29T08:20:45.150Z,1705.00
2023-06-29T08:21:44.918Z,1688.00
2023-06-29T08:22:44.935Z,1687.00
2023-06-29T08:23:44.942Z,1652.00
2023-06-29T08:24:44.900Z,1504.00
2023-06-29T08:25:44.935Z,1445.00
2023-06-29T08:26:45.663Z,1395.00
2023-06-29T08:27:45.004Z,1384.00
2023-06-29T08:28:45.071Z,1362.00
2023-06-29T08:29:45.076Z,1347.00
2023-06-29T08:30:45.255Z,1357.00
2023-06-29T08:31:45.217Z,1307.00
2023-06-29T08:32:45.257Z,1326.00
2023-06-29T08:33:45.319Z,1309.00
2023-06-29T08:34:45.307Z,1276.00
2023-06-29T08:35:45.342Z,1234.00
2023-06-29T08:36:45.418Z,1212.00
2023-06-29T08:37:45.447Z,1147.00
2023-06-29T08:38:45.533Z,1113.00
2023-06-29T08:39:45.602Z,1065.00
2023-06-29T08:40:45.843Z,1014.00
2023-06-29T08:41:45.745Z,966.00
2023-06-29T08:42:45.724Z,929.00
2023-06-29T08:43:45.739Z,940.00
2023-06-29T08:44:45.799Z,963.00
2023-06-29T08:45:45.806Z,962.00
2023-06-29T08:46:45.876Z,950.00
2023-06-29T08:47:45.922Z,955.00
2023-06-29T08:48:45.964Z,969.00
2023-06-29T08:49:46.015Z,990.00
2023-06-29T08:50:46.213Z,992.00
2023-06-29T08:51:46.135Z,989.00
2023-06-29T08:52:46.240Z,981.00
2023-06-29T08:53:46.257Z,990.00
2023-06-29T08:54:46.285Z,983.00
2023-06-29T08:55:46.381Z,956.00
2023-06-29T08:56:46.427Z,933.00
2023-06-29T08:57:46.516Z,925.00
2023-06-29T08:58:46.506Z,916.00
2023-06-29T08:59:46.666Z,935.00
2023-06-29T09:00:46.943Z,962.00
2023-06-29T09:01:46.621Z,977.00
2023-06-29T09:02:46.827Z,983.00
2023-06-29T09:03:46.912Z,986.00
2023-06-29T09:04:46.765Z,989.00
2023-06-29T09:05:46.963Z,988.00
2023-06-29T09:06:46.857Z,986.00
2023-06-29T09:07:46.943Z,997.00
2023-06-29T09:08:47.036Z,1005.00
2023-06-29T09:09:46.982Z,990.00
2023-06-29T09:10:47.071Z,990.00
2023-06-29T09:11:47.008Z,969.00
2023-06-29T09:12:47.029Z,970.00
2023-06-29T09:13:47.104Z,959.00
2023-06-29T09:14:47.191Z,955.00
2023-06-29T09:15:47.197Z,955.00
2023-06-29T09:16:47.146Z,947.00
2023-06-29T09:17:47.453Z,958.00
2023-06-29T09:18:47.255Z,960.00
2023-06-29T09:19:47.270Z,979.00
2023-06-29T09:20:47.525Z,995.00
2023-06-29T09:21:48.298Z,982.00
2023-06-29T09:22:47.444Z,982.00
2023-06-29T09:23:49.238Z,956.00
2023-06-29T09:25:01.462Z,961.00
2023-06-29T09:25:48.472Z,962.00
2023-06-29T09:26:47.777Z,964.00
2023-06-29T09:27:47.376Z,965.00
2023-06-29T09:28:47.373Z,965.00
2023-06-29T09:29:47.377Z,969.00
2023-06-29T09:30:47.452Z,957.00
2023-06-29T09:31:47.903Z,909.00
2023-06-29T09:32:47.389Z,875.00
2023-06-29T09:33:47.856Z,859.00
2023-06-29T09:34:47.366Z,838.00
2023-06-29T09:35:47.492Z,791.00
2023-06-29T09:36:47.329Z,774.00
2023-06-29T09:37:47.289Z,707.00
2023-06-29T09:38:47.285Z,709.00
2023-06-29T09:39:47.308Z,689.00
2023-06-29T09:40:47.362Z,710.00
2023-06-29T09:41:47.338Z,741.00
2023-06-29T09:42:47.820Z,735.00
2023-06-29T09:43:47.328Z,734.00
2023-06-29T09:44:47.336Z,705.00
2023-06-29T09:45:47.730Z,666.00
2023-06-29T09:49:06.577Z,674.00
2023-06-29T09:49:47.420Z,676.00
2023-06-29T09:50:47.772Z,685.00
2023-06-29T09:51:47.324Z,708.00
2023-06-29T09:52:47.368Z,714.00
2023-06-29T09:53:47.324Z,758.00
2023-06-29T09:54:47.821Z,731.00
2023-06-29T09:55:47.318Z,719.00
2023-06-29T09:56:47.304Z,715.00
2023-06-29T09:57:47.307Z,711.00
2023-06-29T09:58:47.748Z,670.00
2023-06-29T09:59:47.335Z,696.00
2023-06-29T10:00:47.514Z,716.00
2023-06-29T10:01:47.288Z,697.00
2023-06-29T10:02:47.354Z,700.00
2023-06-29T10:03:47.286Z,696.00
2023-06-29T10:04:47.301Z,737.00
2023-06-29T10:05:47.263Z,759.00
2023-06-29T10:06:47.371Z,718.00
2023-06-29T10:07:47.301Z,742.00
2023-06-29T10:08:47.224Z,762.00
2023-06-29T10:09:47.186Z,759.00
2023-06-29T10:10:47.308Z,788.00
2023-06-29T10:11:47.197Z,796.00
2023-06-29T10:12:47.217Z,813.00
2023-06-29T10:13:47.224Z,819.00
2023-06-29T10:14:47.285Z,815.00
2023-06-29T10:15:47.193Z,841.00
2023-06-29T10:16:47.202Z,854.00
2023-06-29T10:17:47.178Z,873.00
2023-06-29T10:18:47.220Z,857.00
2023-06-29T10:19:47.339Z,894.00
2023-06-29T10:20:47.366Z,878.00
2023-06-29T10:21:47.136Z,883.00
2023-06-29T10:22:47.179Z,910.00
2023-06-29T10:23:47.204Z,917.00
2023-06-29T10:24:47.116Z,951.00
2023-06-29T10:25:47.119Z,842.00
2023-06-29T10:26:47.328Z,746.00
2023-06-29T10:27:47.112Z,695.00
2023-06-29T10:28:47.095Z,660.00
2023-06-29T10:29:47.045Z,640.00
2023-06-29T10:30:47.277Z,625.00
2023-06-29T10:31:47.059Z,628.00
2023-06-29T10:32:47.077Z,627.00
2023-06-29T10:33:47.282Z,634.00
2023-06-29T10:34:47.082Z,638.00
2023-06-29T10:35:47.039Z,644.00
2023-06-29T10:36:47.106Z,653.00
2023-06-29T10:37:47.019Z,662.00
2023-06-29T10:38:47.304Z,689.00
2023-06-29T10:39:46.997Z,712.00
2023-06-29T10:41:48.020Z,772.00
2023-06-29T10:42:47.102Z,797.00
2023-06-29T10:43:47.171Z,824.00
2023-06-29T10:44:47.217Z,853.00
2023-06-29T10:45:47.273Z,854.00
2023-06-29T10:46:47.470Z,885.00
2023-06-29T10:47:47.473Z,901.00
2023-06-29T10:48:49.115Z,929.00
2023-06-29T10:49:47.498Z,927.00
2023-06-29T10:50:47.645Z,923.00
2023-06-29T10:51:47.747Z,941.00
2023-06-29T10:52:47.689Z,961.00
2023-06-29T10:53:47.813Z,995.00
2023-06-29T10:54:47.968Z,985.00
2023-06-29T10:55:47.826Z,977.00
2023-06-29T10:56:47.878Z,966.00
2023-06-29T10:57:48.027Z,1008.00
2023-06-29T10:58:47.925Z,1042.00
2023-06-29T10:59:48.711Z,1058.00
2023-06-29T11:00:48.242Z,1056.00
2023-06-29T11:01:48.128Z,1075.00
2023-06-29T11:02:48.318Z,1042.00
2023-06-29T11:03:48.210Z,1036.00
2023-06-29T11:04:48.245Z,988.00
2023-06-29T11:05:48.300Z,985.00
2023-06-29T11:06:48.362Z,959.00
2023-06-29T11:07:48.420Z,1012.00
2023-06-29T11:08:48.398Z,1047.00
2023-06-29T11:09:48.411Z,1013.00
2023-06-29T11:10:48.485Z,991.00
2023-06-29T11:11:48.536Z,1007.00
2023-06-29T11:12:48.588Z,1043.00
2023-06-29T11:13:48.562Z,1063.00
2023-06-29T11:14:49.642Z,1069.00
2023-06-29T11:15:48.842Z,1100.00
2023-06-29T11:16:48.999Z,1145.00
2023-06-29T11:17:48.594Z,1146.00
2023-06-29T11:18:48.595Z,1124.00
2023-06-29T11:19:48.593Z,1065.00
2023-06-29T11:20:48.537Z,1074.00
2023-06-29T11:21:48.600Z,1048.00
2023-06-29T11:22:48.537Z,1024.00
2023-06-29T11:23:48.576Z,1026.00
2023-06-29T11:24:48.784Z,977.00
2023-06-29T11:25:48.528Z,970.00
2023-06-29T11:26:48.518Z,943.00
2023-06-29T11:27:48.472Z,958.00
2023-06-29T11:28:48.518Z,982.00
2023-06-29T11:29:48.487Z,1029.00
2023-06-29T11:30:50.943Z,1029.00
2023-06-29T11:31:48.537Z,1030.00
2023-06-29T11:32:48.503Z,958.00
2023-06-29T11:33:48.459Z,882.00
2023-06-29T11:34:48.519Z,991.00
2023-06-29T11:35:48.567Z,986.00
2023-06-29T11:36:59.765Z,1001.00
2023-06-29T11:37:49.466Z,1002.00
2023-06-29T11:38:48.430Z,1003.00
2023-06-29T11:39:48.592Z,1023.00
2023-06-29T11:40:48.459Z,999.00
2023-06-29T11:41:48.415Z,1028.00
2023-06-29T11:42:48.551Z,1040.00
2023-06-29T11:43:48.414Z,1054.00
2023-06-29T11:44:48.384Z,1053.00
2023-06-29T11:45:48.762Z,1084.00
2023-06-29T11:46:54.838Z,968.00
2023-06-29T11:47:49.526Z,927.00
2023-06-29T11:48:48.545Z,960.00
2023-06-29T11:49:48.492Z,982.00
2023-06-29T11:50:48.524Z,967.00
2023-06-29T11:51:48.525Z,848.00
2023-06-29T11:52:48.522Z,885.00
2023-06-29T11:53:48.522Z,918.00
2023-06-29T11:54:48.475Z,872.00
2023-06-29T11:55:48.545Z,898.00
2023-06-29T11:56:48.564Z,878.00
2023-06-29T11:57:48.612Z,807.00
2023-06-29T11:58:48.656Z,763.00
2023-06-29T11:59:48.724Z,747.00
2023-06-29T12:00:48.900Z,743.00
2023-06-29T12:01:48.772Z,710.00
2023-06-29T12:02:48.882Z,749.00
2023-06-29T12:03:48.971Z,766.00
2023-06-29T12:04:48.988Z,781.00
2023-06-29T12:05:50.422Z,745.00
2023-06-29T12:06:49.002Z,748.00
2023-06-29T12:07:49.245Z,689.00
2023-06-29T12:08:49.090Z,675.00
2023-06-29T12:09:49.103Z,630.00
2023-06-29T12:10:49.102Z,634.00
2023-06-29T12:11:49.168Z,664.00
2023-06-29T12:12:49.169Z,659.00
2023-06-29T12:13:49.229Z,648.00
2023-06-29T12:14:49.230Z,643.00
2023-06-29T12:18:49.646Z,650.00
2023-06-29T12:20:08.459Z,657.00
2023-06-29T12:20:50.393Z,657.00
2023-06-29T12:21:51.418Z,637.00
2023-06-29T12:22:49.199Z,631.00
2023-06-29T12:23:49.237Z,638.00
2023-06-29T12:24:49.236Z,629.00
2023-06-29T12:25:49.445Z,576.00
2023-06-29T12:26:49.258Z,613.00
2023-06-29T12:27:49.261Z,614.00
2023-06-29T12:28:49.346Z,630.00
2023-06-29T12:29:49.284Z,622.00
2023-06-29T12:30:49.428Z,588.00
2023-06-29T12:31:49.331Z,590.00
2023-06-29T12:32:49.344Z,602.00
2023-06-29T12:33:49.319Z,614.00
2023-06-29T12:34:50.949Z,593.00
2023-06-29T12:35:49.628Z,587.00
2023-06-29T12:36:49.367Z,590.00
2023-06-29T12:37:49.281Z,564.00
2023-06-29T12:38:49.264Z,547.00
2023-06-29T12:39:49.266Z,574.00